Time;durP1;ratioP1;P1;durP2;ratioP2;P2;SDS_P1;SDS_P2;PMS_P1;PMS_P2;Temp;Humidity;BMP_temperature;BMP_pressure;BME280_temperature;BME280_humidity;BME280_pressure;Samples;Min_cycle;Max_cycle;Signal;HPM_P1;HPM_P2
2021/05/09 00:02:16;;;;;;;1.40;1.30;;;;;;;;;;5070173;28;20477;-67
2021/05/09 00:04:42;;;;;;;1.50;1.40;;;;;;;;;;5070846;28;20035;-69
2021/05/09 00:07:09;;;;;;;1.52;1.42;;;;;;;;;;5070897;28;20036;-67
2021/05/09 00:09:35;;;;;;;1.60;1.50;;;;;;;;;;5070242;28;20501;-67
2021/05/09 00:12:03;;;;;;;1.48;1.38;;;;;;;;;;5071331;28;20459;-67
2021/05/09 00:14:29;;;;;;;1.50;1.40;;;;;;;;;;5074247;28;20494;-66
2021/05/09 00:16:55;;;;;;;1.77;1.67;;;;;;;;;;5074543;28;20378;-67
2021/05/09 00:19:21;;;;;;;1.55;1.45;;;;;;;;;;5074920;28;20049;-67
2021/05/09 00:21:47;;;;;;;1.90;1.70;;;;;;;;;;5074853;28;20036;-67
2021/05/09 00:24:13;;;;;;;1.60;1.50;;;;;;;;;;5091678;28;20028;-66
2021/05/09 00:26:39;;;;;;;1.38;1.27;;;;;;;;;;5094017;28;20024;-67
2021/05/09 00:29:05;;;;;;;1.50;1.40;;;;;;;;;;5094681;28;20027;-67
2021/05/09 00:31:31;;;;;;;2.67;1.85;;;;;;;;;;5094704;28;20438;-66
2021/05/09 00:33:57;;;;;;;1.50;1.40;;;;;;;;;;5094171;28;20043;-67
2021/05/09 00:36:26;;;;;;;1.83;1.70;;;;;;;;;;5094579;28;20027;-68
2021/05/09 00:38:52;;;;;;;1.75;1.65;;;;;;;;;;5094358;28;20082;-67
2021/05/09 00:41:18;;;;;;;2.35;1.90;;;;;;;;;;5093572;28;20040;-67
2021/05/09 00:43:44;;;;;;;1.75;1.60;;;;;;;;;;5086724;28;20107;-67
2021/05/09 00:46:10;;;;;;;1.55;1.45;;;;;;;;;;5053649;28;20071;-67
2021/05/09 00:48:36;;;;;;;1.55;1.45;;;;;;;;;;5053701;28;20032;-67
2021/05/09 00:51:02;;;;;;;1.55;1.40;;;;;;;;;;5064926;28;20039;-67
2021/05/09 00:53:28;;;;;;;1.50;1.40;;;;;;;;;;5073694;28;20105;-66
2021/05/09 00:55:54;;;;;;;1.70;1.60;;;;;;;;;;5073278;28;20020;-66
2021/05/09 00:58:20;;;;;;;1.55;1.45;;;;;;;;;;5073933;28;20045;-67
2021/05/09 01:00:46;;;;;;;1.40;1.30;;;;;;;;;;5072439;28;20016;-67
2021/05/09 01:03:12;;;;;;;1.60;1.50;;;;;;;;;;5071880;28;20028;-66
2021/05/09 01:05:38;;;;;;;1.75;1.50;;;;;;;;;;5073409;28;20060;-67
2021/05/09 01:08:05;;;;;;;1.77;1.67;;;;;;;;;;5073470;28;20029;-67
2021/05/09 01:10:31;;;;;;;2.08;1.60;;;;;;;;;;5072737;28;20044;-67
2021/05/09 01:12:58;;;;;;;1.73;1.60;;;;;;;;;;5073366;28;20040;-66
2021/05/09 01:15:24;;;;;;;1.80;1.60;;;;;;;;;;5073528;28;20055;-67
2021/05/09 01:17:50;;;;;;;1.40;1.30;;;;;;;;;;5063461;28;20107;-67
2021/05/09 01:20:16;;;;;;;1.70;1.60;;;;;;;;;;5053016;28;20032;-66
2021/05/09 01:22:42;;;;;;;1.55;1.45;;;;;;;;;;5061716;28;20749;-66
2021/05/09 01:25:09;;;;;;;1.58;1.48;;;;;;;;;;5056212;28;20025;-67
2021/05/09 01:27:35;;;;;;;1.50;1.40;;;;;;;;;;5053328;28;20028;-68
2021/05/09 01:30:01;;;;;;;1.88;1.50;;;;;;;;;;5052860;28;20035;-67
2021/05/09 01:32:27;;;;;;;1.63;1.52;;;;;;;;;;5052335;28;20589;-67
2021/05/09 01:34:53;;;;;;;1.60;1.50;;;;;;;;;;5052829;28;20044;-68
2021/05/09 01:37:19;;;;;;;1.90;1.58;;;;;;;;;;5052813;28;20071;-67
2021/05/09 01:39:45;;;;;;;1.63;1.52;;;;;;;;;;5052091;28;20060;-67
2021/05/09 01:42:11;;;;;;;1.48;1.38;;;;;;;;;;5053161;28;20032;-67
2021/05/09 01:44:47;;;;;;;1.70;1.60;;;;;;;;;;5052833;28;20037;-67
2021/05/09 01:47:13;;;;;;;1.83;1.73;;;;;;;;;;5052683;28;20480;-67
2021/05/09 01:49:39;;;;;;;1.40;1.30;;;;;;;;;;5053298;28;20029;-67
2021/05/09 01:52:05;;;;;;;2.10;1.60;;;;;;;;;;5052931;28;20028;-67
2021/05/09 01:54:31;;;;;;;1.70;1.60;;;;;;;;;;5051796;28;20047;-67
2021/05/09 01:56:57;;;;;;;1.42;1.33;;;;;;;;;;5052925;28;20486;-67
2021/05/09 01:59:23;;;;;;;1.30;1.20;;;;;;;;;;5052986;28;20069;-67
2021/05/09 02:01:49;;;;;;;1.80;1.70;;;;;;;;;;5051914;28;20029;-66
2021/05/09 02:04:15;;;;;;;1.58;1.48;;;;;;;;;;5052354;28;20043;-67
2021/05/09 02:06:41;;;;;;;1.60;1.50;;;;;;;;;;5052646;28;20032;-67
2021/05/09 02:09:07;;;;;;;1.70;1.60;;;;;;;;;;5051776;28;20067;-67
2021/05/09 02:11:34;;;;;;;1.75;1.65;;;;;;;;;;5052375;28;20029;-67
2021/05/09 02:14:00;;;;;;;1.42;1.33;;;;;;;;;;5052008;28;20441;-67
2021/05/09 02:16:26;;;;;;;1.48;1.38;;;;;;;;;;5051789;28;20032;-67
2021/05/09 02:18:52;;;;;;;1.40;1.30;;;;;;;;;;5052304;28;20029;-68
2021/05/09 02:21:18;;;;;;;1.55;1.42;;;;;;;;;;5052278;28;20033;-67
2021/05/09 02:23:44;;;;;;;1.45;1.35;;;;;;;;;;5078126;28;20020;-67
2021/05/09 02:26:10;;;;;;;1.63;1.30;;;;;;;;;;5092482;28;20024;-67
2021/05/09 02:28:36;;;;;;;1.70;1.60;;;;;;;;;;5092400;28;20103;-67
2021/05/09 02:31:02;;;;;;;1.63;1.52;;;;;;;;;;5091951;28;20033;-67
2021/05/09 02:33:28;;;;;;;1.55;1.45;;;;;;;;;;5092529;28;20024;-66
2021/05/09 02:35:54;;;;;;;1.90;1.67;;;;;;;;;;5091439;28;20168;-66
2021/05/09 02:38:20;;;;;;;1.70;1.60;;;;;;;;;;5091695;28;20026;-67
2021/05/09 02:40:46;;;;;;;1.67;1.58;;;;;;;;;;5092119;28;20020;-68
2021/05/09 02:43:16;;;;;;;1.73;1.58;;;;;;;;;;5092175;28;20126;-67
2021/05/09 02:45:42;;;;;;;1.35;1.25;;;;;;;;;;5064770;28;20083;-68
2021/05/09 02:48:08;;;;;;;1.70;1.60;;;;;;;;;;5052065;28;20033;-67
2021/05/09 02:50:34;;;;;;;1.73;1.63;;;;;;;;;;5059026;28;20411;-67
2021/05/09 02:53:00;;;;;;;1.42;1.33;;;;;;;;;;5071559;28;20020;-67
2021/05/09 02:55:27;;;;;;;1.50;1.40;;;;;;;;;;5071690;28;20035;-67
2021/05/09 02:57:53;;;;;;;1.73;1.63;;;;;;;;;;5071891;28;20475;-67
2021/05/09 03:00:19;;;;;;;1.60;1.50;;;;;;;;;;5071046;28;20477;-67
2021/05/09 03:02:45;;;;;;;1.80;1.70;;;;;;;;;;5071320;28;20063;-66
2021/05/09 03:05:11;;;;;;;1.65;1.55;;;;;;;;;;5071268;28;20029;-68
2021/05/09 03:07:37;;;;;;;1.42;1.33;;;;;;;;;;5071046;28;20034;-67
2021/05/09 03:10:04;;;;;;;1.77;1.58;;;;;;;;;;5071397;28;20064;-67
2021/05/09 03:12:30;;;;;;;1.55;1.45;;;;;;;;;;5071350;28;20070;-67
2021/05/09 03:14:56;;;;;;;1.50;1.40;;;;;;;;;;5070522;28;20054;-67
2021/05/09 03:17:22;;;;;;;1.67;1.40;;;;;;;;;;5071265;28;20029;-66
2021/05/09 03:19:48;;;;;;;1.60;1.50;;;;;;;;;;5071660;28;20063;-67
2021/05/09 03:22:14;;;;;;;1.55;1.45;;;;;;;;;;5071807;28;20089;-67
2021/05/09 03:24:40;;;;;;;2.03;1.60;;;;;;;;;;5091622;28;20064;-67
2021/05/09 03:27:06;;;;;;;1.50;1.40;;;;;;;;;;5091526;28;20485;-67
2021/05/09 03:29:32;;;;;;;1.90;1.63;;;;;;;;;;5090983;28;20043;-66
2021/05/09 03:31:58;;;;;;;1.27;1.17;;;;;;;;;;5091376;28;20032;-66
2021/05/09 03:34:24;;;;;;;1.50;1.40;;;;;;;;;;5091290;28;20474;-67
2021/05/09 03:36:50;;;;;;;1.45;1.35;;;;;;;;;;5067037;28;20467;-67
2021/05/09 03:39:16;;;;;;;2.30;1.60;;;;;;;;;;5050528;28;20028;-67
2021/05/09 03:41:42;;;;;;;1.63;1.52;;;;;;;;;;5050317;28;20156;-66
2021/05/09 03:44:08;;;;;;;1.70;1.60;;;;;;;;;;5050409;28;20088;-66
2021/05/09 03:46:34;;;;;;;1.63;1.52;;;;;;;;;;5052167;28;20086;-67
2021/05/09 03:49:00;;;;;;;1.25;1.17;;;;;;;;;;5054959;28;20128;-67
2021/05/09 03:51:26;;;;;;;1.50;1.40;;;;;;;;;;5069274;28;20815;-67
2021/05/09 03:53:53;;;;;;;1.40;1.30;;;;;;;;;;5073478;28;20060;-68
2021/05/09 03:56:19;;;;;;;1.35;1.27;;;;;;;;;;5054577;28;20116;-67
2021/05/09 03:58:45;;;;;;;1.20;1.20;;;;;;;;;;5055289;28;20021;-67
2021/05/09 04:01:11;;;;;;;1.63;1.38;;;;;;;;;;5054150;28;20021;-67
2021/05/09 04:03:37;;;;;;;1.52;1.42;;;;;;;;;;5054927;28;20108;-68
2021/05/09 04:06:03;;;;;;;1.40;1.30;;;;;;;;;;5054799;28;20029;-67
2021/05/09 04:08:29;;;;;;;1.50;1.40;;;;;;;;;;5054265;28;20467;-66
2021/05/09 04:10:56;;;;;;;1.58;1.48;;;;;;;;;;5055078;28;20021;-67
2021/05/09 04:13:22;;;;;;;1.60;1.50;;;;;;;;;;5054430;28;20360;-67
2021/05/09 04:15:48;;;;;;;1.75;1.20;;;;;;;;;;5054099;28;20037;-66
2021/05/09 04:18:14;;;;;;;1.50;1.40;;;;;;;;;;5054452;28;20025;-67
2021/05/09 04:20:40;;;;;;;1.70;1.60;;;;;;;;;;5054407;28;20025;-67
2021/05/09 04:23:16;;;;;;;1.40;1.30;;;;;;;;;;5071190;28;20043;-67
2021/05/09 04:25:47;;;;;;;1.40;1.20;;;;;;;;;;5094774;28;20039;-67
2021/05/09 04:28:13;;;;;;;1.73;1.63;;;;;;;;;;5094952;28;20030;-67
2021/05/09 04:30:39;;;;;;;1.50;1.40;;;;;;;;;;5094296;28;20055;-67
2021/05/09 04:33:05;;;;;;;1.40;1.30;;;;;;;;;;5094484;28;20028;-67
2021/05/09 04:35:31;;;;;;;2.67;1.25;;;;;;;;;;5094500;28;20020;-67
2021/05/09 04:37:58;;;;;;;1.48;1.38;;;;;;;;;;5094220;28;20059;-67
2021/05/09 04:40:24;;;;;;;1.70;1.60;;;;;;;;;;5094420;28;20020;-68
2021/05/09 04:42:50;;;;;;;1.65;1.55;;;;;;;;;;5094238;28;20102;-67
2021/05/09 04:45:16;;;;;;;1.40;1.30;;;;;;;;;;5090947;28;20417;-67
2021/05/09 04:47:42;;;;;;;1.40;1.30;;;;;;;;;;5070457;28;20032;-67
2021/05/09 04:50:09;;;;;;;1.67;1.58;;;;;;;;;;5074185;28;20048;-67
2021/05/09 04:52:35;;;;;;;1.40;1.30;;;;;;;;;;5073539;28;20354;-68
2021/05/09 04:55:01;;;;;;;2.60;1.55;;;;;;;;;;5073998;28;20031;-66
2021/05/09 04:57:27;;;;;;;1.50;1.40;;;;;;;;;;5073266;28;20036;-67
2021/05/09 04:59:53;;;;;;;1.63;1.52;;;;;;;;;;5073026;28;20103;-67
2021/05/09 05:02:19;;;;;;;1.40;1.30;;;;;;;;;;5073402;28;20036;-66
2021/05/09 05:04:45;;;;;;;1.55;1.45;;;;;;;;;;5073735;28;20028;-67
2021/05/09 05:07:11;;;;;;;1.40;1.30;;;;;;;;;;5073149;28;20069;-67
2021/05/09 05:09:40;;;;;;;1.50;1.40;;;;;;;;;;5073455;28;20095;-67
2021/05/09 05:12:06;;;;;;;1.45;1.35;;;;;;;;;;5073686;28;20048;-67
2021/05/09 05:14:32;;;;;;;1.50;1.40;;;;;;;;;;5072524;28;20040;-67
2021/05/09 05:16:58;;;;;;;1.60;1.40;;;;;;;;;;5073351;28;20025;-67
2021/05/09 05:19:24;;;;;;;1.55;1.45;;;;;;;;;;5073575;28;20035;-67
2021/05/09 05:21:50;;;;;;;1.90;1.38;;;;;;;;;;5072906;28;20028;-67
2021/05/09 05:24:17;;;;;;;1.88;1.38;;;;;;;;;;5091779;28;20074;-66
2021/05/09 05:26:43;;;;;;;1.50;1.40;;;;;;;;;;5093524;28;20035;-67
2021/05/09 05:29:09;;;;;;;1.38;1.27;;;;;;;;;;5093034;28;20020;-67
2021/05/09 05:31:35;;;;;;;1.70;1.60;;;;;;;;;;5093433;28;20020;-66
2021/05/09 05:34:02;;;;;;;1.60;1.50;;;;;;;;;;5093369;28;20073;-66
2021/05/09 05:36:30;;;;;;;1.50;1.40;;;;;;;;;;5093392;28;20104;-67
2021/05/09 05:38:57;;;;;;;1.40;1.35;;;;;;;;;;5093196;28;20020;-67
2021/05/09 05:41:23;;;;;;;1.55;1.42;;;;;;;;;;5093099;28;20027;-67
2021/05/09 05:43:49;;;;;;;1.80;1.70;;;;;;;;;;5092999;28;20528;-66
2021/05/09 05:46:15;;;;;;;1.45;1.35;;;;;;;;;;5093482;28;20024;-67
2021/05/09 05:48:41;;;;;;;1.42;1.33;;;;;;;;;;5093101;28;20039;-67
2021/05/09 05:51:07;;;;;;;1.05;1.05;;;;;;;;;;5080170;28;20016;-67
2021/05/09 05:53:33;;;;;;;1.73;1.48;;;;;;;;;;5072748;28;20070;-66
2021/05/09 05:55:59;;;;;;;1.58;1.25;;;;;;;;;;5072406;28;20032;-67
2021/05/09 05:58:25;;;;;;;1.30;1.20;;;;;;;;;;5050081;28;20020;-68
2021/05/09 06:00:51;;;;;;;1.70;1.60;;;;;;;;;;5052267;28;20029;-67
2021/05/09 06:03:17;;;;;;;1.25;1.15;;;;;;;;;;5052058;28;20021;-67
2021/05/09 06:05:46;;;;;;;1.52;1.42;;;;;;;;;;5051406;28;20036;-66
2021/05/09 06:08:12;;;;;;;1.45;1.35;;;;;;;;;;5052070;28;20056;-66
2021/05/09 06:10:38;;;;;;;1.42;1.33;;;;;;;;;;5051998;28;20021;-66
2021/05/09 06:13:04;;;;;;;1.48;1.38;;;;;;;;;;5051579;28;20021;-67
2021/05/09 06:15:30;;;;;;;1.30;1.20;;;;;;;;;;5052270;28;20094;-66
2021/05/09 06:17:57;;;;;;;1.20;1.20;;;;;;;;;;5052400;28;20029;-66
2021/05/09 06:20:23;;;;;;;1.50;1.40;;;;;;;;;;5051648;28;20471;-67
2021/05/09 06:22:49;;;;;;;2.28;1.20;;;;;;;;;;5065461;28;20024;-66
2021/05/09 06:25:15;;;;;;;1.20;1.20;;;;;;;;;;5092376;28;20051;-67
2021/05/09 06:27:41;;;;;;;1.38;1.27;;;;;;;;;;5092251;28;20048;-67
2021/05/09 06:30:08;;;;;;;1.48;1.38;;;;;;;;;;5092294;28;20077;-66
2021/05/09 06:32:34;;;;;;;1.40;1.30;;;;;;;;;;5092156;28;20023;-67
2021/05/09 06:35:00;;;;;;;1.60;1.50;;;;;;;;;;5091825;28;20543;-67
2021/05/09 06:37:27;;;;;;;1.23;1.13;;;;;;;;;;5092172;28;20028;-66
2021/05/09 06:39:53;;;;;;;1.23;1.20;;;;;;;;;;5091973;28;20028;-66
2021/05/09 06:42:19;;;;;;;1.15;1.15;;;;;;;;;;5091540;28;20035;-66
2021/05/09 06:44:54;;;;;;;1.50;1.40;;;;;;;;;;5091770;28;20129;-67
2021/05/09 06:47:20;;;;;;;1.35;1.25;;;;;;;;;;5067816;28;20039;-67
2021/05/09 06:49:46;;;;;;;1.38;1.27;;;;;;;;;;5052082;28;20124;-66
2021/05/09 06:52:12;;;;;;;1.50;1.40;;;;;;;;;;5071626;28;20029;-67
2021/05/09 06:54:38;;;;;;;1.23;1.20;;;;;;;;;;5071325;28;20028;-66
2021/05/09 06:57:04;;;;;;;1.48;1.38;;;;;;;;;;5071074;28;20043;-67
2021/05/09 06:59:30;;;;;;;1.50;1.40;;;;;;;;;;5071415;28;20478;-66
2021/05/09 07:01:57;;;;;;;1.48;1.38;;;;;;;;;;5071477;28;20028;-68
2021/05/09 07:04:23;;;;;;;1.40;1.30;;;;;;;;;;5070955;28;20025;-67
2021/05/09 07:06:49;;;;;;;1.45;1.27;;;;;;;;;;5071481;28;20104;-67
2021/05/09 07:09:15;;;;;;;1.23;1.15;;;;;;;;;;5071404;28;20032;-67
2021/05/09 07:11:41;;;;;;;1.40;1.30;;;;;;;;;;5071130;28;20028;-67
2021/05/09 07:14:07;;;;;;;1.30;1.23;;;;;;;;;;5071233;28;20526;-67
2021/05/09 07:16:33;;;;;;;1.13;1.13;;;;;;;;;;5071618;28;20087;-66
2021/05/09 07:19:02;;;;;;;1.85;1.30;;;;;;;;;;5070996;28;20054;-67
2021/05/09 07:21:31;;;;;;;1.10;1.05;;;;;;;;;;5071091;28;20433;-66
2021/05/09 07:23:57;;;;;;;1.52;1.42;;;;;;;;;;5087479;28;20032;-67
2021/05/09 07:26:23;;;;;;;1.73;1.40;;;;;;;;;;5090956;28;20385;-66
2021/05/09 07:28:49;;;;;;;1.58;1.48;;;;;;;;;;5091912;28;20420;-66
2021/05/09 07:31:16;;;;;;;1.17;1.05;;;;;;;;;;5091534;28;20021;-66
2021/05/09 07:33:42;;;;;;;1.38;1.27;;;;;;;;;;5090895;28;20028;-67
2021/05/09 07:36:08;;;;;;;1.02;1.02;;;;;;;;;;5091681;28;20045;-67
2021/05/09 07:38:34;;;;;;;1.33;1.23;;;;;;;;;;5091284;28;20024;-67
2021/05/09 07:41:00;;;;;;;1.50;1.20;;;;;;;;;;5091038;28;20028;-66
2021/05/09 07:43:27;;;;;;;1.95;1.40;;;;;;;;;;5091172;28;20051;-67
2021/05/09 07:45:53;;;;;;;1.30;1.20;;;;;;;;;;5091024;28;20137;-67
2021/05/09 07:48:19;;;;;;;0.90;0.90;;;;;;;;;;5091354;28;20028;-67
2021/05/09 07:50:45;;;;;;;1.30;1.20;;;;;;;;;;5081766;28;20021;-67
2021/05/09 07:53:13;;;;;;;1.35;1.25;;;;;;;;;;5071268;28;20062;-67
2021/05/09 07:55:40;;;;;;;2.08;1.10;;;;;;;;;;5071264;28;20100;-66
2021/05/09 07:58:19;;;;;;;1.30;1.20;;;;;;;;;;5070543;28;20028;-67
2021/05/09 08:00:45;;;;;;;1.20;1.13;;;;;;;;;;5070909;28;20478;-66
2021/05/09 08:03:12;;;;;;;1.15;1.08;;;;;;;;;;5070303;28;20028;-66
2021/05/09 08:05:38;;;;;;;1.50;1.40;;;;;;;;;;5070772;28;20428;-66
2021/05/09 08:08:04;;;;;;;1.48;1.38;;;;;;;;;;5070828;28;20029;-66
2021/05/09 08:10:38;;;;;;;1.42;1.00;;;;;;;;;;5070753;28;20053;-66
2021/05/09 08:13:04;;;;;;;1.50;1.40;;;;;;;;;;5070796;28;20424;-66
2021/05/09 08:15:30;;;;;;;1.40;1.30;;;;;;;;;;5057172;28;20032;-66
2021/05/09 08:17:57;;;;;;;1.42;1.33;;;;;;;;;;5049905;28;20033;-67
2021/05/09 08:20:23;;;;;;;1.50;1.40;;;;;;;;;;5049677;28;20029;-67
2021/05/09 08:22:49;;;;;;;1.27;1.17;;;;;;;;;;5064941;28;20028;-67
2021/05/09 08:25:16;;;;;;;1.50;1.40;;;;;;;;;;5090607;28;20103;-66
2021/05/09 08:27:42;;;;;;;0.90;0.90;;;;;;;;;;5090026;28;20070;-68
2021/05/09 08:30:08;;;;;;;1.38;1.27;;;;;;;;;;5090387;28;20031;-67
2021/05/09 08:32:34;;;;;;;1.42;1.33;;;;;;;;;;5060562;28;20066;-66
2021/05/09 08:35:01;;;;;;;1.30;1.20;;;;;;;;;;5053562;28;20471;-66
2021/05/09 08:37:27;;;;;;;1.50;1.40;;;;;;;;;;5054653;28;20029;-66
2021/05/09 08:39:53;;;;;;;1.30;1.20;;;;;;;;;;5054006;28;20029;-66
2021/05/09 08:42:20;;;;;;;1.35;1.25;;;;;;;;;;5053261;28;20033;-66
2021/05/09 08:44:46;;;;;;;1.30;1.20;;;;;;;;;;5054194;28;20025;-67
2021/05/09 08:47:13;;;;;;;1.35;1.25;;;;;;;;;;5053314;28;20029;-66
2021/05/09 08:49:41;;;;;;;1.20;1.15;;;;;;;;;;5051926;28;20028;-66
2021/05/09 08:52:07;;;;;;;1.33;1.23;;;;;;;;;;5074548;28;20105;-66
2021/05/09 08:54:33;;;;;;;1.20;1.10;;;;;;;;;;5073610;28;20908;-67
2021/05/09 08:56:59;;;;;;;1.33;1.23;;;;;;;;;;5072249;28;20035;-67
2021/05/09 08:59:25;;;;;;;1.30;1.20;;;;;;;;;;5072435;28;20067;-66
2021/05/09 09:01:51;;;;;;;1.13;1.13;;;;;;;;;;5073621;28;20086;-66
2021/05/09 09:04:17;;;;;;;1.77;1.33;;;;;;;;;;5073138;28;20028;-67
2021/05/09 09:06:44;;;;;;;1.45;1.35;;;;;;;;;;5073664;28;20107;-66
2021/05/09 09:09:19;;;;;;;1.98;1.30;;;;;;;;;;5067866;28;20020;-67
2021/05/09 09:11:53;;;;;;;1.10;1.10;;;;;;;;;;5067088;28;20033;-66
2021/05/09 09:14:25;;;;;;;1.35;1.25;;;;;;;;;;5055403;28;20052;-67
2021/05/09 09:17:08;;;;;;;1.20;1.10;;;;;;;;;;5056871;28;20477;-66
2021/05/09 09:19:34;;;;;;;0.98;0.98;;;;;;;;;;5073202;28;20481;-67
2021/05/09 09:22:00;;;;;;;1.10;1.10;;;;;;;;;;5073312;28;20371;-66
2021/05/09 09:24:26;;;;;;;1.20;1.20;;;;;;;;;;5091312;28;20378;-66
2021/05/09 09:26:53;;;;;;;1.50;1.10;;;;;;;;;;5077417;28;20020;-66
2021/05/09 09:29:38;;;;;;;1.00;1.00;;;;;;;;;;5073538;28;20076;-67
2021/05/09 09:32:06;;;;;;;1.02;1.02;;;;;;;;;;5072674;28;20561;-66
2021/05/09 09:34:43;;;;;;;1.20;1.10;;;;;;;;;;5073299;28;20045;-67
2021/05/09 09:37:10;;;;;;;1.10;1.10;;;;;;;;;;5073079;28;20043;-67
2021/05/09 09:39:46;;;;;;;1.30;1.20;;;;;;;;;;5072214;28;20035;-66
2021/05/09 09:42:12;;;;;;;1.23;1.13;;;;;;;;;;5071631;28;20032;-66
2021/05/09 09:44:38;;;;;;;1.15;1.05;;;;;;;;;;5052362;28;20068;-66
2021/05/09 09:47:04;;;;;;;1.35;1.20;;;;;;;;;;5052638;28;20032;-66
2021/05/09 09:49:31;;;;;;;1.33;1.10;;;;;;;;;;5053262;28;20036;-67
2021/05/09 09:52:04;;;;;;;1.10;1.10;;;;;;;;;;5052970;28;20052;-66
2021/05/09 09:54:37;;;;;;;1.50;1.40;;;;;;;;;;5052224;28;20058;-67
2021/05/09 09:57:05;;;;;;;1.30;1.20;;;;;;;;;;5052836;28;20029;-66
2021/05/09 09:59:31;;;;;;;1.20;1.20;;;;;;;;;;5067848;28;20025;-68
2021/05/09 10:01:57;;;;;;;1.00;1.00;;;;;;;;;;5052200;28;20029;-68
2021/05/09 10:04:23;;;;;;;1.20;1.10;;;;;;;;;;5052648;28;20044;-66
2021/05/09 10:06:49;;;;;;;1.05;1.05;;;;;;;;;;5052745;28;20032;-66
2021/05/09 10:09:15;;;;;;;1.27;1.17;;;;;;;;;;5051981;28;20029;-67
2021/05/09 10:11:41;;;;;;;1.30;1.20;;;;;;;;;;5052438;28;20029;-66
2021/05/09 10:14:07;;;;;;;1.45;1.35;;;;;;;;;;5052071;28;20502;-66
2021/05/09 10:16:38;;;;;;;1.20;1.20;;;;;;;;;;5054952;28;20020;-66
2021/05/09 10:19:11;;;;;;;1.02;1.00;;;;;;;;;;5071155;28;20034;-66
2021/05/09 10:21:37;;;;;;;1.00;1.00;;;;;;;;;;5071982;28;20020;-66
2021/05/09 10:24:10;;;;;;;1.13;1.05;;;;;;;;;;5087037;28;20417;-67
2021/05/09 10:26:54;;;;;;;1.02;1.02;;;;;;;;;;5092787;28;20873;-67
2021/05/09 10:29:37;;;;;;;1.10;1.10;;;;;;;;;;5092003;28;20031;-67
2021/05/09 10:32:12;;;;;;;1.27;1.17;;;;;;;;;;5072334;28;20047;-67
2021/05/09 10:34:54;;;;;;;1.10;1.10;;;;;;;;;;5051281;28;20021;-66
2021/05/09 10:37:48;;;;;;;0.93;0.93;;;;;;;;;;5051159;28;20056;-66
2021/05/09 10:40:18;;;;;;;1.20;1.10;;;;;;;;;;5051381;28;20475;-67
2021/05/09 10:42:44;;;;;;;1.00;1.00;;;;;;;;;;5051392;28;20378;-67
2021/05/09 10:45:10;;;;;;;1.00;1.00;;;;;;;;;;5051362;28;20090;-67
2021/05/09 10:47:36;;;;;;;1.00;1.00;;;;;;;;;;5051264;28;20128;-67
2021/05/09 10:50:21;;;;;;;1.05;1.00;;;;;;;;;;5048513;28;20368;-66
2021/05/09 10:52:47;;;;;;;1.35;1.25;;;;;;;;;;5051918;28;20025;-66
2021/05/09 10:55:32;;;;;;;1.17;1.17;;;;;;;;;;5051042;28;20028;-67
2021/05/09 10:57:58;;;;;;;1.10;1.00;;;;;;;;;;5051491;28;20033;-66
2021/05/09 11:00:24;;;;;;;1.20;1.15;;;;;;;;;;5051559;28;20039;-67
2021/05/09 11:02:50;;;;;;;1.33;1.20;;;;;;;;;;5050998;28;20471;-67
2021/05/09 11:05:16;;;;;;;1.00;1.00;;;;;;;;;;5051326;28;20422;-67
2021/05/09 11:07:45;;;;;;;1.10;1.00;;;;;;;;;;5051529;28;20017;-68
2021/05/09 11:10:29;;;;;;;1.13;1.13;;;;;;;;;;5050675;28;20021;-67
2021/05/09 11:13:05;;;;;;;1.30;1.20;;;;;;;;;;5050893;28;20033;-67
2021/05/09 11:15:31;;;;;;;0.80;0.80;;;;;;;;;;5051062;28;20048;-67
2021/05/09 11:17:58;;;;;;;1.00;1.00;;;;;;;;;;5061223;28;20475;-67
2021/05/09 11:20:24;;;;;;;0.80;0.80;;;;;;;;;;5066379;28;20049;-67
2021/05/09 11:22:59;;;;;;;0.90;0.90;;;;;;;;;;5061725;28;20024;-67
2021/05/09 11:25:32;;;;;;;1.08;1.08;;;;;;;;;;5091328;28;20535;-66
2021/05/09 11:27:58;;;;;;;1.05;1.05;;;;;;;;;;5091762;28;20020;-66
2021/05/09 11:30:36;;;;;;;1.02;1.02;;;;;;;;;;5090840;28;20098;-67
2021/05/09 11:33:02;;;;;;;1.00;1.00;;;;;;;;;;5091144;28;20020;-66
2021/05/09 11:35:37;;;;;;;1.10;1.10;;;;;;;;;;5091379;28;20135;-66
2021/05/09 11:38:03;;;;;;;1.38;1.27;;;;;;;;;;5091082;28;20084;-66
2021/05/09 11:40:29;;;;;;;1.10;1.10;;;;;;;;;;5091141;28;20028;-66
2021/05/09 11:42:55;;;;;;;1.05;1.05;;;;;;;;;;5091540;28;20055;-66
2021/05/09 11:45:25;;;;;;;0.88;0.88;;;;;;;;;;5090724;28;20028;-66
2021/05/09 11:47:51;;;;;;;1.10;1.10;;;;;;;;;;5091131;28;20020;-67
2021/05/09 11:50:17;;;;;;;1.20;1.08;;;;;;;;;;5091388;28;20058;-66
2021/05/09 11:52:44;;;;;;;0.90;0.90;;;;;;;;;;5090547;28;20024;-66
2021/05/09 11:55:17;;;;;;;1.13;1.02;;;;;;;;;;5091027;28;20550;-67
2021/05/09 11:57:43;;;;;;;1.10;1.08;;;;;;;;;;5091356;28;20024;-67
2021/05/09 12:00:10;;;;;;;0.82;0.82;;;;;;;;;;5090579;28;20030;-67
2021/05/09 12:02:39;;;;;;;0.95;0.95;;;;;;;;;;5090868;28;20024;-66
2021/05/09 12:05:10;;;;;;;0.95;0.95;;;;;;;;;;5091227;28;20039;-67
2021/05/09 12:07:43;;;;;;;0.90;0.90;;;;;;;;;;5092381;28;20024;-67
2021/05/09 12:10:16;;;;;;;0.98;0.98;;;;;;;;;;5094959;28;20028;-67
2021/05/09 12:12:42;;;;;;;0.90;0.90;;;;;;;;;;5094737;28;20474;-67
2021/05/09 12:15:09;;;;;;;0.90;0.90;;;;;;;;;;5093933;28;20083;-66
2021/05/09 12:17:35;;;;;;;0.90;0.90;;;;;;;;;;5083116;28;20040;-67
2021/05/09 12:20:01;;;;;;;0.95;0.95;;;;;;;;;;5074813;28;20025;-67
2021/05/09 12:22:36;;;;;;;0.90;0.90;;;;;;;;;;5076136;28;20028;-66
2021/05/09 12:25:03;;;;;;;0.82;0.82;;;;;;;;;;5093882;28;20031;-67
2021/05/09 12:27:29;;;;;;;1.00;0.90;;;;;;;;;;5094499;28;20039;-67
2021/05/09 12:29:55;;;;;;;1.10;1.10;;;;;;;;;;5094372;28;20034;-66
2021/05/09 12:32:22;;;;;;;0.90;0.90;;;;;;;;;;5094803;28;20028;-66
2021/05/09 12:35:07;;;;;;;0.95;0.95;;;;;;;;;;5094294;28;20028;-66
2021/05/09 12:37:37;;;;;;;0.82;0.82;;;;;;;;;;5093894;28;20058;-66
2021/05/09 12:40:32;;;;;;;1.20;1.10;;;;;;;;;;5094401;28;20073;-67
2021/05/09 12:43:07;;;;;;;0.88;0.88;;;;;;;;;;5081483;28;20060;-67
2021/05/09 12:45:40;;;;;;;0.95;0.95;;;;;;;;;;5093783;28;20093;-66
2021/05/09 12:48:10;;;;;;;0.93;0.93;;;;;;;;;;5092933;28;20077;-66
2021/05/09 12:50:49;;;;;;;0.90;0.90;;;;;;;;;;5048637;28;20117;-67
2021/05/09 12:53:15;;;;;;;1.20;1.10;;;;;;;;;;5053237;28;20791;-67
2021/05/09 12:55:41;;;;;;;1.10;1.10;;;;;;;;;;5053438;28;20200;-66
2021/05/09 12:58:09;;;;;;;1.20;1.10;;;;;;;;;;5052328;28;20024;-67
2021/05/09 13:00:35;;;;;;;1.20;1.10;;;;;;;;;;5052675;28;20079;-67
2021/05/09 13:03:01;;;;;;;0.80;0.80;;;;;;;;;;5053288;28;20463;-67
2021/05/09 13:05:27;;;;;;;0.93;0.93;;;;;;;;;;5059478;28;20032;-67
2021/05/09 13:07:53;;;;;;;0.80;0.80;;;;;;;;;;5073251;28;20020;-67
2021/05/09 13:10:23;;;;;;;0.80;0.80;;;;;;;;;;5073537;28;20520;-66
2021/05/09 13:12:53;;;;;;;1.00;1.00;;;;;;;;;;5073771;28;20427;-66
2021/05/09 13:15:19;;;;;;;0.90;0.90;;;;;;;;;;5072878;28;20042;-67
2021/05/09 13:17:46;;;;;;;1.00;1.00;;;;;;;;;;5073747;28;20063;-67
2021/05/09 13:20:12;;;;;;;1.23;1.13;;;;;;;;;;5072231;28;20089;-66
2021/05/09 13:22:38;;;;;;;0.80;0.80;;;;;;;;;;5076754;28;20017;-67
2021/05/09 13:25:04;;;;;;;0.80;0.80;;;;;;;;;;5093427;28;20032;-66
2021/05/09 13:27:32;;;;;;;1.30;1.20;;;;;;;;;;5093420;28;20599;-66
2021/05/09 13:29:59;;;;;;;1.10;1.10;;;;;;;;;;5093213;28;20028;-67
2021/05/09 13:32:25;;;;;;;0.80;0.80;;;;;;;;;;5093820;28;20024;-68
2021/05/09 13:34:51;;;;;;;0.98;0.98;;;;;;;;;;5093682;28;20024;-67
2021/05/09 13:37:17;;;;;;;1.00;1.00;;;;;;;;;;5093116;28;20048;-67
2021/05/09 13:39:44;;;;;;;2.15;0.95;;;;;;;;;;5093018;28;20047;-67
2021/05/09 13:42:10;;;;;;;1.00;0.90;;;;;;;;;;5093369;28;20481;-67
2021/05/09 13:44:36;;;;;;;1.08;1.08;;;;;;;;;;5092372;28;20063;-67
2021/05/09 13:47:02;;;;;;;1.10;1.10;;;;;;;;;;5093061;28;20108;-67
2021/05/09 13:49:28;;;;;;;0.80;0.80;;;;;;;;;;5093351;28;20043;-66
2021/05/09 13:51:54;;;;;;;0.80;0.80;;;;;;;;;;5092794;28;20020;-67
2021/05/09 13:54:21;;;;;;;0.88;0.88;;;;;;;;;;5092891;28;20032;-67
2021/05/09 13:56:47;;;;;;;0.82;0.82;;;;;;;;;;5092638;28;20403;-67
2021/05/09 13:59:14;;;;;;;1.02;1.02;;;;;;;;;;5092517;28;20026;-67
2021/05/09 14:01:40;;;;;;;0.85;0.85;;;;;;;;;;5092724;28;20027;-67
2021/05/09 14:04:06;;;;;;;0.70;0.70;;;;;;;;;;5092649;28;20096;-67
2021/05/09 14:06:33;;;;;;;0.90;0.90;;;;;;;;;;5092175;28;20028;-66
2021/05/09 14:08:59;;;;;;;0.82;0.82;;;;;;;;;;5092431;28;20016;-67
2021/05/09 14:11:26;;;;;;;0.93;0.93;;;;;;;;;;5092608;28;20016;-67
2021/05/09 14:13:52;;;;;;;1.08;1.05;;;;;;;;;;5091806;28;20036;-66
2021/05/09 14:16:19;;;;;;;0.95;0.93;;;;;;;;;;5091446;28;20493;-67
2021/05/09 14:18:45;;;;;;;0.93;0.93;;;;;;;;;;5072449;28;20029;-67
2021/05/09 14:21:11;;;;;;;0.90;0.90;;;;;;;;;;5071587;28;20031;-68
2021/05/09 14:23:37;;;;;;;0.98;0.98;;;;;;;;;;5084429;28;20137;-67
2021/05/09 14:26:04;;;;;;;0.80;0.80;;;;;;;;;;5092337;28;20474;-66
2021/05/09 14:28:30;;;;;;;0.80;0.80;;;;;;;;;;5091776;28;20032;-66
2021/05/09 14:30:56;;;;;;;0.82;0.82;;;;;;;;;;5091355;28;20035;-66
2021/05/09 14:33:22;;;;;;;0.82;0.82;;;;;;;;;;5092474;28;20028;-67
2021/05/09 14:35:48;;;;;;;1.00;1.00;;;;;;;;;;5092019;28;20020;-67
2021/05/09 14:38:14;;;;;;;0.80;0.80;;;;;;;;;;5092193;28;20161;-67
2021/05/09 14:40:40;;;;;;;1.65;0.77;;;;;;;;;;5091732;28;20370;-67
2021/05/09 14:43:07;;;;;;;0.90;0.90;;;;;;;;;;5091460;28;20088;-66
2021/05/09 14:45:33;;;;;;;0.85;0.85;;;;;;;;;;5092035;28;20434;-67